Time;durP1;ratioP1;P1;durP2;ratioP2;P2;SDS_P1;SDS_P2;PMS_P1;PMS_P2;Temp;Humidity;BMP_temperature;BMP_pressure;BME280_temperature;BME280_humidity;BME280_pressure;Samples;Min_cycle;Max_cycle;Signal;HPM_P1;HPM_P2
2023/02/19 00:00:18;;;;;;;10.30;7.82;;;;;;;9.17;100.00;100995.66;694274;28;911;-63
2023/02/19 00:00:38;;;;;;;9.80;7.83;;;;;;;9.17;100.00;100996.50;693132;28;4438;-63
2023/02/19 00:01:00;;;;;;;10.45;7.95;;;;;;;9.13;100.00;100994.75;694144;28;804;-63
2023/02/19 00:01:31;;;;;;;10.25;7.80;;;;;;;9.11;100.00;100996.50;694015;28;1133;-63
2023/02/19 00:01:52;;;;;;;9.07;6.97;;;;;;;9.17;100.00;101006.94;692961;28;927;-67
2023/02/19 00:02:12;;;;;;;10.10;7.30;;;;;;;9.07;100.00;100989.50;694335;28;828;-64
2023/02/19 00:02:34;;;;;;;11.03;7.00;;;;;;;9.07;100.00;100989.50;694963;28;911;-64
2023/02/19 00:02:56;;;;;;;10.07;7.53;;;;;;;9.02;100.00;100996.41;696403;28;974;-67
2023/02/19 00:03:16;;;;;;;10.05;7.57;;;;;;;9.02;100.00;100992.06;696319;28;891;-64
2023/02/19 00:03:38;;;;;;;9.53;7.07;;;;;;;8.99;100.00;100992.03;695113;28;1116;-63
2023/02/19 00:04:01;;;;;;;9.77;7.15;;;;;;;9.03;100.00;100991.22;695390;28;4612;-63
2023/02/19 00:04:22;;;;;;;9.90;7.05;;;;;;;9.01;100.00;100992.06;692405;28;982;-63
2023/02/19 00:04:42;;;;;;;9.23;7.22;;;;;;;9.05;100.00;100991.22;693363;28;1140;-65
2023/02/19 00:05:03;;;;;;;9.57;7.05;;;;;;;9.07;100.00;100989.50;692877;28;903;-64
2023/02/19 00:05:23;;;;;;;8.87;7.10;;;;;;;9.07;100.00;100984.28;690210;28;2069;-64
2023/02/19 00:05:44;;;;;;;8.93;7.18;;;;;;;9.14;100.00;100983.47;692126;28;2124;-64
2023/02/19 00:06:07;;;;;;;9.17;7.30;;;;;;;9.13;100.00;100986.06;697129;28;1298;-64
2023/02/19 00:06:29;;;;;;;9.35;7.15;;;;;;;9.13;100.00;100986.94;694210;28;1470;-63
2023/02/19 00:06:50;;;;;;;9.45;7.43;;;;;;;9.09;100.00;100987.75;693395;28;4489;-64
2023/02/19 00:07:10;;;;;;;9.60;7.45;;;;;;;9.08;100.00;100986.00;694104;28;821;-63
2023/02/19 00:07:30;;;;;;;8.70;6.85;;;;;;;9.07;100.00;100992.13;693456;28;1063;-64
2023/02/19 00:07:51;;;;;;;8.30;6.50;;;;;;;9.07;100.00;100992.13;691222;28;1038;-64
2023/02/19 00:08:11;;;;;;;8.93;6.93;;;;;;;9.01;100.00;100986.84;691123;28;1422;-65
2023/02/19 00:08:33;;;;;;;8.90;6.93;;;;;;;8.92;100.00;100985.06;689242;28;1270;-64
2023/02/19 00:08:54;;;;;;;9.30;7.20;;;;;;;8.97;100.00;100987.69;689758;28;1177;-64
2023/02/19 00:09:16;;;;;;;8.75;7.15;;;;;;;8.97;100.00;100990.28;689762;28;912;-64
2023/02/19 00:09:37;;;;;;;8.85;7.07;;;;;;;8.99;100.00;100985.97;690812;28;1186;-65
2023/02/19 00:09:57;;;;;;;8.67;7.00;;;;;;;9.06;100.00;100986.88;691604;28;4257;-64
2023/02/19 00:10:17;;;;;;;10.07;7.13;;;;;;;9.11;100.00;100991.28;691884;28;849;-64
2023/02/19 00:10:38;;;;;;;9.37;7.30;;;;;;;9.09;100.00;100982.56;695278;28;899;-63
2023/02/19 00:11:03;;;;;;;9.40;7.28;;;;;;;9.09;100.00;100986.91;693915;28;927;-64
2023/02/19 00:11:26;;;;;;;9.48;7.18;;;;;;;9.05;100.00;100985.13;693735;28;1310;-64
2023/02/19 00:11:47;;;;;;;9.15;6.95;;;;;;;9.07;100.00;100989.50;692747;28;1198;-66
2023/02/19 00:12:07;;;;;;;8.87;7.00;;;;;;;9.11;100.00;100979.94;692567;28;882;-64
2023/02/19 00:12:28;;;;;;;9.18;7.40;;;;;;;9.11;100.00;100979.94;692230;28;911;-63
2023/02/19 00:12:48;;;;;;;9.77;7.50;;;;;;;9.11;100.00;100988.66;693968;28;4509;-63
2023/02/19 00:13:08;;;;;;;9.97;7.40;;;;;;;9.08;100.00;100985.16;696048;28;1249;-64
2023/02/19 00:13:30;;;;;;;9.07;7.13;;;;;;;9.11;100.00;100986.06;695110;28;1269;-67
2023/02/19 00:13:52;;;;;;;9.60;7.40;;;;;;;9.07;100.00;100979.06;695441;28;959;-63
2023/02/19 00:14:16;;;;;;;10.52;7.60;;;;;;;9.08;100.00;100988.63;696229;28;1184;-65
2023/02/19 00:14:36;;;;;;;9.85;7.65;;;;;;;9.07;100.00;100980.78;697206;28;915;-63
2023/02/19 00:14:57;;;;;;;9.43;7.60;;;;;;;9.09;100.00;100982.56;696610;28;793;-64
2023/02/19 00:15:17;;;;;;;10.68;7.65;;;;;;;9.10;100.00;100992.13;693688;28;1351;-64
2023/02/19 00:15:37;;;;;;;9.80;7.90;;;;;;;9.05;100.00;100990.34;693375;28;1070;-64
2023/02/19 00:16:04;;;;;;;9.50;7.40;;;;;;;9.08;100.00;100980.78;692050;28;4320;-64
2023/02/19 00:16:29;;;;;;;9.95;7.57;;;;;;;9.16;100.00;100973.91;693390;28;896;-63
2023/02/19 00:16:49;;;;;;;10.77;7.65;;;;;;;9.11;100.00;100979.94;693189;28;903;-64
2023/02/19 00:17:09;;;;;;;10.33;7.57;;;;;;;9.10;100.00;100983.44;694104;28;1378;-64
2023/02/19 00:17:30;;;;;;;11.20;8.57;;;;;;;9.10;100.00;100984.31;693412;28;1029;-63
2023/02/19 00:17:50;;;;;;;9.90;8.57;;;;;;;9.04;100.00;100984.25;694434;28;2015;-64
2023/02/19 00:18:11;;;;;;;9.48;7.80;;;;;;;8.99;100.00;100983.38;691562;28;757;-64
2023/02/19 00:18:31;;;;;;;9.87;7.47;;;;;;;9.07;100.00;100973.84;693446;28;967;-66
2023/02/19 00:18:53;;;;;;;10.13;7.82;;;;;;;9.09;100.00;100977.34;695662;28;4485;-64
2023/02/19 00:19:15;;;;;;;10.68;8.07;;;;;;;9.14;100.00;100975.63;695459;28;1090;-65
2023/02/19 00:19:36;;;;;;;10.18;8.05;;;;;;;9.11;100.00;100985.16;694130;28;1039;-65
2023/02/19 00:19:56;;;;;;;10.25;7.82;;;;;;;9.12;100.00;100982.56;696966;28;904;-66
2023/02/19 00:20:17;;;;;;;10.37;8.00;;;;;;;9.10;100.00;100981.69;695116;28;4046;-64
2023/02/19 00:20:37;;;;;;;9.43;7.47;;;;;;;9.22;100.00;100973.09;693022;28;1392;-64
2023/02/19 00:20:57;;;;;;;9.37;7.23;;;;;;;9.14;100.00;100972.16;694287;28;793;-67
2023/02/19 00:21:18;;;;;;;9.57;7.60;;;;;;;9.12;100.00;100979.09;694297;28;795;-65
2023/02/19 00:21:39;;;;;;;9.55;7.55;;;;;;;9.18;100.00;100977.41;693338;28;4319;-65
2023/02/19 00:21:59;;;;;;;9.35;7.50;;;;;;;9.14;100.00;100975.63;691816;28;1348;-63
2023/02/19 00:22:19;;;;;;;10.23;7.67;;;;;;;9.14;100.00;100980.00;693464;28;1026;-65
2023/02/19 00:22:40;;;;;;;10.73;7.50;;;;;;;9.11;100.00;100975.63;694514;28;912;-65
2023/02/19 00:23:00;;;;;;;9.68;7.88;;;;;;;9.10;100.00;100979.09;693070;28;906;-65
2023/02/19 00:23:20;;;;;;;9.53;7.70;;;;;;;9.10;100.00;100973.88;692803;28;908;-64
2023/02/19 00:23:41;;;;;;;9.82;7.32;;;;;;;9.13;100.00;100966.06;693360;28;1118;-64
2023/02/19 00:24:04;;;;;;;11.37;7.93;;;;;;;9.11;100.00;100977.34;694594;28;1096;-64
2023/02/19 00:24:24;;;;;;;10.70;8.05;;;;;;;9.11;100.00;100969.50;691372;28;895;-63
2023/02/19 00:24:45;;;;;;;10.10;7.70;;;;;;;9.08;100.00;100974.72;695544;28;4545;-64
2023/02/19 00:25:05;;;;;;;10.40;7.70;;;;;;;9.12;100.00;100979.94;693896;28;827;-64
2023/02/19 00:25:26;;;;;;;10.20;7.78;;;;;;;9.10;100.00;100978.22;695329;28;1013;-64
2023/02/19 00:25:46;;;;;;;9.43;7.80;;;;;;;9.10;100.00;100973.88;696980;28;1253;-64
2023/02/19 00:26:09;;;;;;;10.18;7.50;;;;;;;9.18;100.00;100969.56;695878;28;906;-64
2023/02/19 00:26:32;;;;;;;9.98;8.00;;;;;;;9.20;100.00;100977.41;693968;28;1091;-64
2023/02/19 00:26:52;;;;;;;9.68;7.57;;;;;;;9.16;100.00;100973.03;691675;28;1334;-64
2023/02/19 00:27:12;;;;;;;9.52;7.63;;;;;;;9.12;100.00;100977.34;689051;28;1272;-64
2023/02/19 00:27:33;;;;;;;10.27;7.50;;;;;;;9.10;100.00;100983.44;688849;28;1071;-64
2023/02/19 00:27:53;;;;;;;9.32;7.40;;;;;;;9.05;100.00;100975.56;689042;28;4413;-64
2023/02/19 00:28:13;;;;;;;9.73;7.70;;;;;;;9.10;100.00;100978.22;688631;28;856;-64
2023/02/19 00:28:34;;;;;;;9.70;7.70;;;;;;;9.11;100.00;100970.41;692797;28;1065;-64
2023/02/19 00:28:56;;;;;;;9.88;7.88;;;;;;;9.14;100.00;100977.38;694476;28;1208;-65
2023/02/19 00:29:19;;;;;;;9.73;7.35;;;;;;;9.19;100.00;100973.94;691013;28;842;-64
2023/02/19 00:29:40;;;;;;;10.02;7.38;;;;;;;9.25;100.00;100980.03;692450;28;833;-64
2023/02/19 00:30:00;;;;;;;9.60;7.57;;;;;;;9.22;100.00;100972.19;692974;28;904;-64
2023/02/19 00:30:20;;;;;;;9.83;7.37;;;;;;;9.19;100.00;100968.72;695169;28;1127;-64
2023/02/19 00:30:41;;;;;;;11.43;7.30;;;;;;;9.15;100.00;100977.38;692222;28;4470;-64
2023/02/19 00:31:13;;;;;;;10.97;7.43;;;;;;;9.13;100.00;100973.88;692623;28;920;-65
2023/02/19 00:31:34;;;;;;;9.43;7.32;;;;;;;9.10;100.00;100978.22;692141;28;1015;-65
2023/02/19 00:31:55;;;;;;;9.65;7.57;;;;;;;9.16;100.00;100975.63;692003;28;1479;-65
2023/02/19 00:32:15;;;;;;;9.30;7.30;;;;;;;9.14;100.00;100980.00;690002;28;1385;-65
2023/02/19 00:32:35;;;;;;;8.90;6.80;;;;;;;9.13;100.00;100973.88;689774;28;1016;-64
2023/02/19 00:32:56;;;;;;;7.90;6.53;;;;;;;9.19;100.00;100971.31;692623;28;1302;-64
2023/02/19 00:33:17;;;;;;;8.27;6.43;;;;;;;9.14;100.00;100982.59;694617;28;908;-64
2023/02/19 00:33:37;;;;;;;8.90;7.10;;;;;;;9.09;100.00;100977.34;693093;28;1386;-63
2023/02/19 00:34:01;;;;;;;8.40;7.00;;;;;;;9.06;100.00;100973.84;693616;28;4372;-64
2023/02/19 00:34:21;;;;;;;7.95;6.50;;;;;;;9.12;100.00;100979.94;689508;28;1006;-65
2023/02/19 00:34:42;;;;;;;8.07;6.17;;;;;;;9.20;100.00;100980.00;688599;28;999;-64
2023/02/19 00:35:03;;;;;;;9.02;6.55;;;;;;;9.17;100.00;100973.03;689513;28;1198;-65
2023/02/19 00:35:23;;;;;;;8.55;6.72;;;;;;;9.16;100.00;100978.25;686858;28;1245;-64
2023/02/19 00:35:43;;;;;;;8.40;6.70;;;;;;;9.24;100.00;100981.78;688422;28;1047;-64
2023/02/19 00:36:04;;;;;;;8.70;6.55;;;;;;;9.21;100.00;100968.72;688495;28;1463;-64
2023/02/19 00:36:26;;;;;;;8.07;6.30;;;;;;;9.20;100.00;100972.19;687715;28;1331;-64
2023/02/19 00:36:47;;;;;;;8.07;6.20;;;;;;;9.15;100.00;100969.56;684885;28;4498;-64
2023/02/19 00:37:07;;;;;;;8.10;6.27;;;;;;;9.14;100.00;100961.72;689390;28;841;-64
2023/02/19 00:37:27;;;;;;;8.05;6.22;;;;;;;9.11;100.00;100961.69;691523;28;1270;-63
2023/02/19 00:37:48;;;;;;;8.30;6.07;;;;;;;9.13;100.00;100968.66;690853;28;1942;-65
2023/02/19 00:38:08;;;;;;;8.17;6.20;;;;;;;9.13;100.00;100960.84;692301;28;863;-64
2023/02/19 00:38:29;;;;;;;8.00;6.37;;;;;;;9.14;100.00;100975.63;691713;28;1067;-66
2023/02/19 00:38:50;;;;;;;7.88;5.95;;;;;;;9.23;100.00;100963.50;691867;28;5243;-70
2023/02/19 00:39:14;;;;;;;7.43;5.45;;;;;;;9.20;100.00;100953.94;693295;28;1315;-64
2023/02/19 00:39:34;;;;;;;7.82;5.82;;;;;;;9.23;100.00;100953.94;693661;28;1109;-64
2023/02/19 00:39:55;;;;;;;8.17;5.47;;;;;;;9.19;100.00;100963.50;690775;28;4453;-66
2023/02/19 00:40:15;;;;;;;7.73;5.53;;;;;;;9.22;100.00;100962.66;691656;28;947;-65
2023/02/19 00:40:37;;;;;;;7.30;5.60;;;;;;;9.18;100.00;100971.31;693013;28;978;-68
2023/02/19 00:40:58;;;;;;;7.75;5.60;;;;;;;9.14;100.00;100965.19;690237;28;1424;-64
2023/02/19 00:41:20;;;;;;;7.55;5.45;;;;;;;9.18;100.00;100956.53;691486;28;790;-66
2023/02/19 00:41:41;;;;;;;6.93;5.13;;;;;;;9.17;100.00;100965.22;687740;28;1240;-65
2023/02/19 00:42:01;;;;;;;6.70;5.30;;;;;;;9.17;100.00;100954.78;690250;28;797;-64
2023/02/19 00:42:22;;;;;;;6.97;5.53;;;;;;;9.22;100.00;100961.75;688114;28;931;-64
2023/02/19 00:42:42;;;;;;;6.80;5.30;;;;;;;9.18;100.00;100960.88;688411;28;4745;-65
2023/02/19 00:43:02;;;;;;;7.30;5.63;;;;;;;9.19;100.00;100962.59;691996;28;876;-67
2023/02/19 00:43:23;;;;;;;7.13;5.68;;;;;;;9.14;100.00;100957.38;690174;28;916;-65
2023/02/19 00:43:52;;;;;;;7.73;5.60;;;;;;;9.11;100.00;100964.31;690871;28;1076;-65
2023/02/19 00:44:15;;;;;;;7.50;5.38;;;;;;;9.13;100.00;100966.06;689361;28;994;-64
2023/02/19 00:44:35;;;;;;;6.93;5.30;;;;;;;9.16;100.00;100950.41;689760;28;1146;-65
2023/02/19 00:44:55;;;;;;;7.35;5.10;;;;;;;9.18;100.00;100958.28;690281;28;876;-64
2023/02/19 00:45:16;;;;;;;7.53;5.70;;;;;;;9.14;100.00;100956.53;691668;28;897;-64
2023/02/19 00:45:37;;;;;;;7.05;5.43;;;;;;;9.16;100.00;100955.63;693462;28;943;-64
2023/02/19 00:45:57;;;;;;;7.47;5.65;;;;;;;9.18;100.00;100955.66;691732;28;4512;-63
2023/02/19 00:46:25;;;;;;;7.80;5.63;;;;;;;9.21;100.00;100955.69;692994;28;856;-64
2023/02/19 00:46:46;;;;;;;7.75;5.72;;;;;;;9.25;100.00;100970.50;690604;28;1047;-65
2023/02/19 00:47:07;;;;;;;7.97;5.75;;;;;;;9.22;100.00;100966.97;691514;28;845;-63
2023/02/19 00:47:27;;;;;;;6.85;5.18;;;;;;;9.24;100.00;100954.84;692393;28;1342;-67
2023/02/19 00:47:48;;;;;;;6.90;5.15;;;;;;;9.18;100.00;100956.53;692304;28;1204;-66
2023/02/19 00:48:08;;;;;;;7.33;5.60;;;;;;;9.19;100.00;100963.50;693311;28;786;-65
2023/02/19 00:48:28;;;;;;;7.00;5.50;;;;;;;9.18;100.00;100961.75;693970;28;979;-68
2023/02/19 00:48:51;;;;;;;7.67;5.60;;;;;;;9.16;100.00;100958.25;693866;28;4424;-65
2023/02/19 00:49:18;;;;;;;8.07;6.13;;;;;;;9.20;100.00;100959.16;691107;28;1290;-65
2023/02/19 00:49:38;;;;;;;8.00;5.75;;;;;;;9.16;100.00;100953.03;689955;28;1068;-65
2023/02/19 00:49:58;;;;;;;8.90;5.88;;;;;;;9.19;100.00;100957.41;692143;28;839;-65
2023/02/19 00:50:20;;;;;;;8.43;5.77;;;;;;;9.22;100.00;100959.16;690905;28;821;-65
2023/02/19 00:50:40;;;;;;;8.02;5.60;;;;;;;9.19;100.00;100958.28;688380;28;1133;-65
2023/02/19 00:51:01;;;;;;;7.40;6.00;;;;;;;9.24;100.00;100955.69;689544;28;1320;-65
2023/02/19 00:51:24;;;;;;;7.33;5.83;;;;;;;9.21;100.00;100958.28;692243;28;1290;-65
2023/02/19 00:51:45;;;;;;;7.50;5.80;;;;;;;9.25;100.00;100956.56;690613;28;4326;-64
2023/02/19 00:52:05;;;;;;;7.95;5.60;;;;;;;9.22;100.00;100957.44;691614;28;869;-65
2023/02/19 00:52:26;;;;;;;8.40;5.90;;;;;;;9.21;100.00;100963.50;695462;28;856;-65
2023/02/19 00:52:46;;;;;;;9.13;5.78;;;;;;;9.19;100.00;100955.69;694188;28;1031;-65
2023/02/19 00:53:07;;;;;;;7.87;5.40;;;;;;;9.19;100.00;100957.41;695957;28;847;-65
2023/02/19 00:53:27;;;;;;;7.63;5.68;;;;;;;9.20;100.00;100953.94;692416;28;1387;-64
2023/02/19 00:53:47;;;;;;;8.20;6.13;;;;;;;9.30;100.00;100949.63;694212;28;1375;-64
2023/02/19 00:54:09;;;;;;;8.75;6.25;;;;;;;9.23;100.00;100958.28;691851;28;900;-64
2023/02/19 00:54:30;;;;;;;7.10;5.70;;;;;;;9.17;100.00;100960.00;692679;28;1018;-65
2023/02/19 00:54:52;;;;;;;8.48;5.88;;;;;;;9.12;100.00;100963.44;691126;28;4451;-64
2023/02/19 00:55:12;;;;;;;8.57;6.20;;;;;;;9.18;100.00;100960.88;687941;28;984;-65
2023/02/19 00:55:33;;;;;;;8.15;5.88;;;;;;;9.14;100.00;100954.78;688487;28;1303;-64
2023/02/19 00:55:53;;;;;;;8.20;5.80;;;;;;;9.14;100.00;100959.13;684166;28;1442;-66
2023/02/19 00:56:14;;;;;;;7.43;5.80;;;;;;;9.14;100.00;100954.78;687995;28;1189;-64
2023/02/19 00:56:34;;;;;;;7.80;6.20;;;;;;;9.12;100.00;100956.47;687352;28;908;-64
2023/02/19 00:56:54;;;;;;;8.38;6.00;;;;;;;9.18;100.00;100956.53;686864;28;1020;-64
2023/02/19 00:57:15;;;;;;;9.17;6.20;;;;;;;9.15;100.00;100956.53;688409;28;1209;-64
2023/02/19 00:57:35;;;;;;;9.18;6.22;;;;;;;9.17;100.00;100953.91;689691;28;1189;-63
2023/02/19 00:57:56;;;;;;;8.60;6.33;;;;;;;9.17;100.00;100960.00;689374;28;4355;-64
2023/02/19 00:58:16;;;;;;;9.02;6.53;;;;;;;9.13;100.00;100947.81;691165;28;872;-64
2023/02/19 00:58:37;;;;;;;8.87;6.17;;;;;;;9.09;100.00;100956.47;689349;28;1352;-64
2023/02/19 00:58:57;;;;;;;9.05;6.00;;;;;;;9.18;100.00;100953.94;687724;28;1384;-65
2023/02/19 00:59:18;;;;;;;8.60;6.03;;;;;;;9.17;100.00;100960.00;683700;28;1435;-65
2023/02/19 00:59:38;;;;;;;8.20;5.93;;;;;;;9.18;100.00;100948.72;685573;28;1443;-64
2023/02/19 00:59:59;;;;;;;8.47;6.23;;;;;;;9.19;100.00;100953.06;684045;28;1307;-64
2023/02/19 01:00:19;;;;;;;8.25;6.55;;;;;;;9.20;100.00;100957.41;683331;28;1263;-65
2023/02/19 01:00:40;;;;;;;8.37;5.87;;;;;;;9.20;100.00;100954.78;683525;28;4325;-64
2023/02/19 01:01:00;;;;;;;9.03;5.97;;;;;;;9.24;100.00;100957.44;686781;28;936;-64
2023/02/19 01:01:21;;;;;;;8.63;6.40;;;;;;;9.20;100.00;100957.41;687858;28;1014;-64
2023/02/19 01:01:43;;;;;;;8.32;6.53;;;;;;;9.17;100.00;100965.22;686198;28;1208;-64
2023/02/19 01:02:07;;;;;;;8.52;6.18;;;;;;;9.19;100.00;100963.50;687817;28;1252;-64
2023/02/19 01:02:28;;;;;;;8.25;5.90;;;;;;;9.16;100.00;100958.25;692034;28;1070;-64
2023/02/19 01:02:49;;;;;;;8.60;6.05;;;;;;;9.18;100.00;100959.16;694107;28;998;-64
2023/02/19 01:03:10;;;;;;;9.45;6.38;;;;;;;9.16;100.00;100963.47;691184;28;872;-64
2023/02/19 01:03:31;;;;;;;9.20;5.77;;;;;;;9.23;100.00;100960.91;695006;28;1005;-66
2023/02/19 01:03:51;;;;;;;8.02;5.78;;;;;;;9.24;100.00;100947.00;694693;28;4482;-66
2023/02/19 01:04:12;;;;;;;8.53;6.00;;;;;;;9.18;100.00;100951.31;693350;28;1106;-65
2023/02/19 01:04:33;;;;;;;9.68;6.10;;;;;;;9.18;100.00;100963.50;690822;28;1172;-64
2023/02/19 01:04:53;;;;;;;9.63;6.30;;;;;;;9.19;100.00;100953.06;690089;28;1009;-66
2023/02/19 01:05:14;;;;;;;9.80;6.40;;;;;;;9.18;100.00;100956.53;693646;28;803;-64
2023/02/19 01:05:34;;;;;;;9.20;6.53;;;;;;;9.14;100.00;100959.13;692799;28;1268;-66
2023/02/19 01:05:54;;;;;;;9.03;6.50;;;;;;;9.16;100.00;100955.63;690500;28;872;-68
2023/02/19 01:06:17;;;;;;;9.65;6.47;;;;;;;9.18;100.00;100951.31;688990;28;1545;-67
2023/02/19 01:06:38;;;;;;;8.35;6.30;;;;;;;9.18;100.00;100961.75;688849;28;1501;-68
2023/02/19 01:06:58;;;;;;;9.23;6.43;;;;;;;9.17;100.00;100957.38;687948;28;4312;-63
2023/02/19 01:07:18;;;;;;;9.48;6.72;;;;;;;9.20;100.00;100949.56;684788;28;1235;-66
2023/02/19 01:07:39;;;;;;;8.87;6.40;;;;;;;9.19;100.00;100952.19;683909;28;918;-64
2023/02/19 01:08:01;;;;;;;9.55;6.75;;;;;;;9.19;100.00;100941.75;685130;28;1044;-65
2023/02/19 01:08:21;;;;;;;10.30;6.88;;;;;;;9.16;100.00;100953.03;686454;28;777;-64
2023/02/19 01:08:42;;;;;;;10.60;6.70;;;;;;;9.16;100.00;100953.03;691159;28;1051;-64
2023/02/19 01:09:03;;;;;;;9.55;6.43;;;;;;;9.20;100.00;100953.94;691095;28;935;-64
2023/02/19 01:09:24;;;;;;;9.60;6.72;;;;;;;9.16;100.00;100953.03;693681;28;845;-64
2023/02/19 01:09:44;;;;;;;10.27;7.00;;;;;;;9.14;100.00;100946.94;690856;28;4458;-64
2023/02/19 01:10:05;;;;;;;9.10;6.67;;;;;;;9.14;100.00;100949.56;690663;28;1514;-64
2023/02/19 01:10:26;;;;;;;9.00;6.60;;;;;;;9.13;100.00;100954.75;689668;28;1956;-65
2023/02/19 01:10:47;;;;;;;9.95;6.90;;;;;;;9.13;100.00;100950.41;688554;28;1209;-64
2023/02/19 01:11:08;;;;;;;10.05;6.80;;;;;;;9.18;100.00;100945.25;688229;28;985;-64
2023/02/19 01:11:29;;;;;;;9.63;6.47;;;;;;;9.20;100.00;100954.78;687852;28;1216;-64
2023/02/19 01:11:49;;;;;;;10.73;6.87;;;;;;;9.20;100.00;100949.56;688079;28;1136;-64
2023/02/19 01:12:10;;;;;;;10.00;7.03;;;;;;;9.20;100.00;100952.19;690862;28;817;-64
2023/02/19 01:12:31;;;;;;;10.40;6.87;;;;;;;9.18;100.00;100953.94;688669;28;1351;-64
2023/02/19 01:12:51;;;;;;;10.73;7.05;;;;;;;9.21;100.00;100953.06;689208;28;4718;-64
2023/02/19 01:13:12;;;;;;;9.30;6.60;;;;;;;9.23;100.00;100953.94;689156;28;870;-64
2023/02/19 01:13:33;;;;;;;9.25;6.57;;;;;;;9.20;100.00;100953.94;687625;28;1198;-64
2023/02/19 01:13:57;;;;;;;9.50;6.75;;;;;;;9.16;100.00;100947.81;687493;28;1185;-64
2023/02/19 01:14:18;;;;;;;9.80;7.20;;;;;;;9.10;100.00;100952.16;687600;28;1297;-64
2023/02/19 01:14:38;;;;;;;9.50;7.00;;;;;;;9.11;100.00;100946.03;686956;28;1478;-64
2023/02/19 01:14:58;;;;;;;9.35;6.88;;;;;;;9.08;100.00;100956.47;686324;28;905;-64
2023/02/19 01:15:19;;;;;;;9.23;6.63;;;;;;;9.11;100.00;100953.88;686561;28;944;-64
2023/02/19 01:15:39;;;;;;;9.38;6.85;;;;;;;9.08;100.00;100954.72;688094;28;4306;-64
2023/02/19 01:16:12;;;;;;;9.73;6.93;;;;;;;9.06;100.00;100951.25;687428;28;841;-64
2023/02/19 01:16:32;;;;;;;9.18;6.88;;;;;;;9.10;100.00;100954.75;691593;28;3879;-65
2023/02/19 01:16:52;;;;;;;9.17;6.73;;;;;;;9.13;100.00;100957.38;694375;28;1216;-67
2023/02/19 01:17:13;;;;;;;10.43;6.97;;;;;;;9.11;100.00;100952.16;691616;28;1204;-64
2023/02/19 01:17:34;;;;;;;9.37;7.00;;;;;;;9.14;100.00;100948.69;688858;28;1188;-65
2023/02/19 01:17:55;;;;;;;9.93;7.10;;;;;;;9.12;100.00;100956.47;687988;28;1902;-66
2023/02/19 01:18:16;;;;;;;9.10;7.28;;;;;;;9.14;100.00;100949.56;688944;28;1424;-64
2023/02/19 01:18:37;;;;;;;9.57;7.03;;;;;;;9.11;100.00;100953.88;689037;28;1016;-64
2023/02/19 01:18:57;;;;;;;9.23;6.72;;;;;;;9.14;100.00;100957.38;690835;28;4315;-65
2023/02/19 01:19:18;;;;;;;9.25;6.40;;;;;;;9.15;100.00;100947.81;685959;28;1225;-64
2023/02/19 01:19:38;;;;;;;10.30;7.10;;;;;;;9.17;100.00;100946.97;687080;28;912;-64
2023/02/19 01:19:59;;;;;;;9.18;6.85;;;;;;;9.26;100.00;100942.66;687838;28;806;-64
2023/02/19 01:20:20;;;;;;;8.85;6.55;;;;;;;9.28;100.00;100947.03;689808;28;2065;-64
2023/02/19 01:20:42;;;;;;;10.52;6.60;;;;;;;9.27;100.00;100949.63;690349;28;1051;-63
2023/02/19 01:21:12;;;;;;;9.57;6.80;;;;;;;9.23;100.00;100953.94;692772;28;947;-64
2023/02/19 01:21:33;;;;;;;9.52;6.82;;;;;;;9.23;100.00;100945.25;689988;28;1433;-65
2023/02/19 01:21:53;;;;;;;8.80;6.53;;;;;;;9.29;100.00;100950.50;687451;28;4441;-64
2023/02/19 01:22:14;;;;;;;9.47;6.37;;;;;;;9.25;100.00;100951.34;689765;28;1365;-65
2023/02/19 01:22:34;;;;;;;8.90;6.65;;;;;;;9.28;100.00;100951.38;690643;28;1350;-64
2023/02/19 01:22:55;;;;;;;10.27;7.10;;;;;;;9.25;100.00;100952.22;690631;28;967;-64
2023/02/19 01:23:15;;;;;;;10.00;6.70;;;;;;;9.27;100.00;100950.47;688872;28;911;-64
2023/02/19 01:23:36;;;;;;;9.33;6.07;;;;;;;9.22;100.00;100949.59;690858;28;1128;-64
2023/02/19 01:23:56;;;;;;;8.25;6.10;;;;;;;9.28;100.00;100946.16;688948;28;1121;-64
2023/02/19 01:24:19;;;;;;;8.55;6.20;;;;;;;9.26;100.00;100955.69;686041;28;1411;-64
2023/02/19 01:24:39;;;;;;;8.97;6.40;;;;;;;9.20;100.00;100953.94;686032;28;4450;-64
2023/02/19 01:25:00;;;;;;;8.75;6.43;;;;;;;9.17;100.00;100944.34;686546;28;836;-63
2023/02/19 01:25:20;;;;;;;9.00;6.70;;;;;;;9.20;100.00;100948.72;689067;28;805;-64
2023/02/19 01:25:41;;;;;;;9.38;6.78;;;;;;;9.17;100.00;100949.56;690512;28;1390;-64
2023/02/19 01:26:06;;;;;;;9.20;6.63;;;;;;;9.16;100.00;100950.41;691942;28;1029;-64
2023/02/19 01:26:30;;;;;;;8.48;6.60;;;;;;;9.18;100.00;100946.09;691474;28;854;-64
2023/02/19 01:26:50;;;;;;;8.95;6.25;;;;;;;9.26;100.00;100942.66;689366;28;1619;-65
2023/02/19 01:27:10;;;;;;;9.70;6.30;;;;;;;9.18;100.00;100946.09;688491;28;919;-64
2023/02/19 01:27:31;;;;;;;8.53;6.33;;;;;;;9.18;100.00;100946.09;689646;28;1122;-63
2023/02/19 01:27:51;;;;;;;9.55;6.50;;;;;;;9.18;100.00;100953.06;686448;28;4374;-64
2023/02/19 01:28:12;;;;;;;9.30;6.20;;;;;;;9.20;100.00;100944.34;686955;28;826;-65
2023/02/19 01:28:33;;;;;;;9.10;6.03;;;;;;;9.17;100.00;100954.78;687226;28;1271;-64
2023/02/19 01:28:54;;;;;;;8.43;6.00;;;;;;;9.17;100.00;100949.56;688003;28;975;-64
2023/02/19 01:29:14;;;;;;;8.48;6.30;;;;;;;9.17;100.00;100939.13;687271;28;1037;-64
2023/02/19 01:29:35;;;;;;;8.60;6.43;;;;;;;9.16;100.00;100947.81;690048;28;952;-64
2023/02/19 01:29:55;;;;;;;9.35;6.30;;;;;;;9.16;100.00;100941.72;690546;28;1142;-64
2023/02/19 01:30:16;;;;;;;8.13;5.80;;;;;;;9.22;100.00;100940.88;693900;28;841;-64
2023/02/19 01:30:37;;;;;;;8.70;6.03;;;;;;;9.22;100.00;100946.09;692803;28;919;-63
2023/02/19 01:31:02;;;;;;;8.45;6.15;;;;;;;9.14;100.00;100943.47;693126;28;4454;-64
2023/02/19 01:31:23;;;;;;;8.45;6.00;;;;;;;9.12;100.00;100953.00;689241;28;1390;-69
2023/02/19 01:31:44;;;;;;;7.85;5.65;;;;;;;9.22;100.00;100938.28;690643;28;971;-64
2023/02/19 01:32:04;;;;;;;8.35;5.28;;;;;;;9.25;100.00;100938.28;691084;28;816;-64
2023/02/19 01:32:25;;;;;;;8.20;5.70;;;;;;;9.21;100.00;100940.03;687783;28;1213;-65
2023/02/19 01:32:45;;;;;;;8.30;5.70;;;;;;;9.24;100.00;100944.41;688787;28;1110;-64
2023/02/19 01:33:07;;;;;;;9.30;5.60;;;;;;;9.17;100.00;100946.97;688941;28;861;-64
2023/02/19 01:33:27;;;;;;;8.75;5.82;;;;;;;9.19;100.00;100947.84;689643;28;1020;-64
2023/02/19 01:33:50;;;;;;;8.63;5.43;;;;;;;9.26;100.00;100943.50;687809;28;5160;-65
2023/02/19 01:34:11;;;;;;;8.90;5.45;;;;;;;9.33;100.00;100944.41;688362;28;1281;-65
2023/02/19 01:34:32;;;;;;;8.48;5.70;;;;;;;9.34;100.00;100940.97;689850;28;1152;-64
2023/02/19 01:34:53;;;;;;;8.32;5.80;;;;;;;9.26;100.00;100937.44;689445;28;911;-64
2023/02/19 01:35:13;;;;;;;8.43;5.50;;;;;;;9.22;100.00;100933.97;690247;28;829;-65
2023/02/19 01:35:38;;;;;;;9.13;5.20;;;;;;;9.20;100.00;100940.88;692023;28;1123;-65
2023/02/19 01:35:59;;;;;;;8.88;5.90;;;;;;;9.22;100.00;100946.09;694621;28;997;-64
2023/02/19 01:36:19;;;;;;;8.55;5.43;;;;;;;9.19;100.00;100946.97;692262;28;1319;-64
2023/02/19 01:36:40;;;;;;;8.02;5.28;;;;;;;9.25;100.00;100939.19;689986;28;4405;-64
2023/02/19 01:37:01;;;;;;;8.55;5.68;;;;;;;9.21;100.00;100940.03;691352;28;809;-64
2023/02/19 01:37:22;;;;;;;8.90;5.63;;;;;;;9.17;100.00;100944.34;692801;28;828;-64
2023/02/19 01:37:42;;;;;;;7.77;5.40;;;;;;;9.15;100.00;100938.25;692036;28;1229;-63
2023/02/19 01:38:02;;;;;;;7.35;5.68;;;;;;;9.18;100.00;100945.25;692009;28;1930;-64
2023/02/19 01:38:23;;;;;;;7.40;5.60;;;;;;;9.17;100.00;100944.34;693334;28;1004;-64
2023/02/19 01:38:44;;;;;;;8.20;5.78;;;;;;;9.17;100.00;100944.34;695232;28;5182;-64
2023/02/19 01:39:05;;;;;;;7.65;5.60;;;;;;;9.17;100.00;100939.13;694256;28;900;-64
2023/02/19 01:39:26;;;;;;;8.60;5.90;;;;;;;9.18;100.00;100943.50;694628;28;986;-64
2023/02/19 01:39:46;;;;;;;8.07;5.20;;;;;;;9.22;100.00;100935.69;694096;28;4412;-67
2023/02/19 01:40:07;;;;;;;7.63;5.30;;;;;;;9.23;100.00;100942.66;694427;28;840;-67
2023/02/19 01:40:27;;;;;;;9.73;6.00;;;;;;;9.25;100.00;100946.13;692843;28;1193;-64
2023/02/19 01:41:00;;;;;;;9.02;6.13;;;;;;;9.25;100.00;100946.13;693053;28;835;-65
2023/02/19 01:41:23;;;;;;;9.43;6.05;;;;;;;9.33;100.00;100923.53;694100;28;877;-61